sensor_id;sensor_type;location;lat;lon;timestamp;pressure;altitude;pressure_sealevel;temperature
74533;BMP180;63012;51.096;-115.366;2022-09-03T00:00:54;87014.00;;;24.66
74533;BMP180;63012;51.096;-115.366;2022-09-03T00:03:41;87011.80;;;24.70
74533;BMP180;63012;51.096;-115.366;2022-09-03T00:06:26;87016.80;;;24.70
74533;BMP180;63012;51.096;-115.366;2022-09-03T00:09:30;87011.40;;;24.70
74533;BMP180;63012;51.096;-115.366;2022-09-03T00:12:50;87008.60;;;24.80
74533;BMP180;63012;51.096;-115.366;2022-09-03T00:15:39;87015.40;;;24.80
74533;BMP180;63012;51.096;-115.366;2022-09-03T00:18:32;87011.80;;;24.80
74533;BMP180;63012;51.096;-115.366;2022-09-03T00:21:48;87013.20;;;24.86
74533;BMP180;63012;51.096;-115.366;2022-09-03T00:24:41;87010.20;;;24.90
74533;BMP180;63012;51.096;-115.366;2022-09-03T00:27:28;87013.20;;;24.90
74533;BMP180;63012;51.096;-115.366;2022-09-03T00:30:23;87015.00;;;24.98
74533;BMP180;63012;51.096;-115.366;2022-09-03T00:36:43;87006.60;;;25.00
74533;BMP180;63012;51.096;-115.366;2022-09-03T00:39:21;87008.00;;;25.00
74533;BMP180;63012;51.096;-115.366;2022-09-03T00:42:30;87005.40;;;25.00
74533;BMP180;63012;51.096;-115.366;2022-09-03T00:46:02;87007.40;;;25.04
74533;BMP180;63012;51.096;-115.366;2022-09-03T00:51:56;87009.80;;;25.10
74533;BMP180;63012;51.096;-115.366;2022-09-03T00:54:40;87010.60;;;25.10
74533;BMP180;63012;51.096;-115.366;2022-09-03T01:00:32;87004.00;;;25.10
74533;BMP180;63012;51.096;-115.366;2022-09-03T01:03:51;87009.20;;;25.10
74533;BMP180;63012;51.096;-115.366;2022-09-03T01:11:21;87008.80;;;25.10
74533;BMP180;63012;51.096;-115.366;2022-09-03T01:35:52;87005.00;;;25.10
74533;BMP180;63012;51.096;-115.366;2022-09-03T01:39:23;87005.00;;;25.10
74533;BMP180;63012;51.096;-115.366;2022-09-03T01:46:07;87011.40;;;25.00
74533;BMP180;63012;51.096;-115.366;2022-09-03T01:48:53;87005.40;;;25.00
74533;BMP180;63012;51.096;-115.366;2022-09-03T01:51:32;87007.60;;;25.00
74533;BMP180;63012;51.096;-115.366;2022-09-03T01:58:16;87017.40;;;25.00
74533;BMP180;63012;51.096;-115.366;2022-09-03T02:01:20;87017.20;;;25.00
74533;BMP180;63012;51.096;-115.366;2022-09-03T02:04:11;87016.20;;;25.00
74533;BMP180;63012;51.096;-115.366;2022-09-03T02:06:52;87018.20;;;25.00
74533;BMP180;63012;51.096;-115.366;2022-09-03T02:09:29;87024.60;;;25.00
74533;BMP180;63012;51.096;-115.366;2022-09-03T02:12:37;87027.40;;;25.00
74533;BMP180;63012;51.096;-115.366;2022-09-03T02:15:20;87034.20;;;25.00
74533;BMP180;63012;51.096;-115.366;2022-09-03T02:17:50;87026.60;;;25.00
74533;BMP180;63012;51.096;-115.366;2022-09-03T02:20:27;87030.20;;;25.00
74533;BMP180;63012;51.096;-115.366;2022-09-03T02:23:04;87038.00;;;25.00
74533;BMP180;63012;51.096;-115.366;2022-09-03T02:25:55;87041.40;;;25.00
74533;BMP180;63012;51.096;-115.366;2022-09-03T02:29:06;87040.60;;;25.00
74533;BMP180;63012;51.096;-115.366;2022-09-03T02:31:39;87045.20;;;25.00
74533;BMP180;63012;51.096;-115.366;2022-09-03T02:34:35;87043.00;;;25.00
74533;BMP180;63012;51.096;-115.366;2022-09-03T02:37:23;87044.60;;;25.00
74533;BMP180;63012;51.096;-115.366;2022-09-03T02:40:09;87052.00;;;25.00
74533;BMP180;63012;51.096;-115.366;2022-09-03T02:43:02;87057.60;;;25.00
74533;BMP180;63012;51.096;-115.366;2022-09-03T02:45:45;87051.20;;;25.00
74533;BMP180;63012;51.096;-115.366;2022-09-03T02:51:36;87065.60;;;24.90
74533;BMP180;63012;51.096;-115.366;2022-09-03T02:54:25;87071.60;;;24.90
74533;BMP180;63012;51.096;-115.366;2022-09-03T02:57:06;87070.20;;;24.90
74533;BMP180;63012;51.096;-115.366;2022-09-03T02:59:39;87073.80;;;24.90
74533;BMP180;63012;51.096;-115.366;2022-09-03T03:02:30;87083.80;;;24.90
74533;BMP180;63012;51.096;-115.366;2022-09-03T03:04:57;87078.60;;;24.90
74533;BMP180;63012;51.096;-115.366;2022-09-03T03:08:07;87073.40;;;24.90
74533;BMP180;63012;51.096;-115.366;2022-09-03T03:10:44;87080.80;;;24.90
74533;BMP180;63012;51.096;-115.366;2022-09-03T03:13:31;87082.20;;;24.88
74533;BMP180;63012;51.096;-115.366;2022-09-03T03:16:04;87083.20;;;24.82
74533;BMP180;63012;51.096;-115.366;2022-09-03T03:19:14;87092.60;;;24.88
74533;BMP180;63012;51.096;-115.366;2022-09-03T03:22:10;87088.60;;;24.80
74533;BMP180;63012;51.096;-115.366;2022-09-03T03:24:52;87095.80;;;24.80
74533;BMP180;63012;51.096;-115.366;2022-09-03T03:27:49;87097.80;;;24.80
74533;BMP180;63012;51.096;-115.366;2022-09-03T03:34:02;87097.00;;;24.80
74533;BMP180;63012;51.096;-115.366;2022-09-03T03:36:49;87102.40;;;24.76
74533;BMP180;63012;51.096;-115.366;2022-09-03T03:43:04;87109.60;;;24.70
74533;BMP180;63012;51.096;-115.366;2022-09-03T03:46:10;87109.40;;;24.70
74533;BMP180;63012;51.096;-115.366;2022-09-03T03:49:01;87109.20;;;24.70
74533;BMP180;63012;51.096;-115.366;2022-09-03T03:51:52;87096.00;;;24.70
74533;BMP180;63012;51.096;-115.366;2022-09-03T03:54:59;87108.00;;;24.70
74533;BMP180;63012;51.096;-115.366;2022-09-03T03:57:57;87108.00;;;24.68
74533;BMP180;63012;51.096;-115.366;2022-09-03T04:00:38;87100.20;;;24.68
74533;BMP180;63012;51.096;-115.366;2022-09-03T04:03:33;87097.80;;;24.62
74533;BMP180;63012;51.096;-115.366;2022-09-03T04:06:20;87094.80;;;24.60
74533;BMP180;63012;51.096;-115.366;2022-09-03T04:09:08;87100.00;;;24.60
74533;BMP180;63012;51.096;-115.366;2022-09-03T04:11:44;87094.60;;;24.60
74533;BMP180;63012;51.096;-115.366;2022-09-03T04:14:31;87087.80;;;24.60
74533;BMP180;63012;51.096;-115.366;2022-09-03T04:20:10;87083.00;;;24.60
74533;BMP180;63012;51.096;-115.366;2022-09-03T04:23:03;87094.80;;;24.60
74533;BMP180;63012;51.096;-115.366;2022-09-03T04:26:01;87092.00;;;24.60
74533;BMP180;63012;51.096;-115.366;2022-09-03T04:28:51;87090.60;;;24.60
74533;BMP180;63012;51.096;-115.366;2022-09-03T04:31:49;87097.80;;;24.60
74533;BMP180;63012;51.096;-115.366;2022-09-03T04:38:57;87090.00;;;24.60
74533;BMP180;63012;51.096;-115.366;2022-09-03T04:41:39;87092.60;;;24.60
74533;BMP180;63012;51.096;-115.366;2022-09-03T04:44:29;87091.80;;;24.60
74533;BMP180;63012;51.096;-115.366;2022-09-03T04:47:18;87095.00;;;24.58
74533;BMP180;63012;51.096;-115.366;2022-09-03T04:50:05;87102.00;;;24.52
74533;BMP180;63012;51.096;-115.366;2022-09-03T04:52:53;87099.20;;;24.50
74533;BMP180;63012;51.096;-115.366;2022-09-03T04:55:46;87095.20;;;24.50
74533;BMP180;63012;51.096;-115.366;2022-09-03T04:58:42;87092.80;;;24.50
74533;BMP180;63012;51.096;-115.366;2022-09-03T05:01:24;87096.80;;;24.50
74533;BMP180;63012;51.096;-115.366;2022-09-03T05:04:22;87099.80;;;24.50
74533;BMP180;63012;51.096;-115.366;2022-09-03T05:07:13;87099.00;;;24.50
74533;BMP180;63012;51.096;-115.366;2022-09-03T05:09:56;87100.60;;;24.50
74533;BMP180;63012;51.096;-115.366;2022-09-03T05:12:39;87110.80;;;24.50
74533;BMP180;63012;51.096;-115.366;2022-09-03T05:15:41;87108.20;;;24.50
74533;BMP180;63012;51.096;-115.366;2022-09-03T05:19:02;87116.40;;;24.50
74533;BMP180;63012;51.096;-115.366;2022-09-03T05:22:02;87115.00;;;24.50
74533;BMP180;63012;51.096;-115.366;2022-09-03T05:25:29;87119.20;;;24.50
74533;BMP180;63012;51.096;-115.366;2022-09-03T05:29:00;87125.40;;;24.50
74533;BMP180;63012;51.096;-115.366;2022-09-03T05:31:59;87124.60;;;24.50
74533;BMP180;63012;51.096;-115.366;2022-09-03T05:34:47;87136.60;;;24.50
74533;BMP180;63012;51.096;-115.366;2022-09-03T05:37:37;87135.20;;;24.42
74533;BMP180;63012;51.096;-115.366;2022-09-03T05:40:11;87138.40;;;24.40
74533;BMP180;63012;51.096;-115.366;2022-09-03T05:43:14;87137.40;;;24.38
74533;BMP180;63012;51.096;-115.366;2022-09-03T05:45:50;87132.40;;;24.20
74533;BMP180;63012;51.096;-115.366;2022-09-03T05:48:26;87133.60;;;24.20
74533;BMP180;63012;51.096;-115.366;2022-09-03T05:51:14;87136.80;;;24.10
74533;BMP180;63012;51.096;-115.366;2022-09-03T05:53:56;87139.20;;;24.10
74533;BMP180;63012;51.096;-115.366;2022-09-03T05:56:47;87143.40;;;24.10
74533;BMP180;63012;51.096;-115.366;2022-09-03T05:59:24;87150.00;;;24.10
74533;BMP180;63012;51.096;-115.366;2022-09-03T06:02:15;87146.00;;;24.00
74533;BMP180;63012;51.096;-115.366;2022-09-03T06:05:14;87144.60;;;24.00
74533;BMP180;63012;51.096;-115.366;2022-09-03T06:08:08;87147.00;;;24.00
74533;BMP180;63012;51.096;-115.366;2022-09-03T06:10:47;87151.00;;;23.90
74533;BMP180;63012;51.096;-115.366;2022-09-03T06:13:43;87146.60;;;23.90
74533;BMP180;63012;51.096;-115.366;2022-09-03T06:16:33;87148.80;;;23.80
74533;BMP180;63012;51.096;-115.366;2022-09-03T06:22:16;87134.40;;;23.80
74533;BMP180;63012;51.096;-115.366;2022-09-03T06:28:04;87145.40;;;23.70
74533;BMP180;63012;51.096;-115.366;2022-09-03T06:30:44;87139.00;;;23.70
74533;BMP180;63012;51.096;-115.366;2022-09-03T06:33:17;87135.80;;;23.70
74533;BMP180;63012;51.096;-115.366;2022-09-03T06:36:09;87140.20;;;23.62
74533;BMP180;63012;51.096;-115.366;2022-09-03T06:38:55;87141.80;;;23.60
74533;BMP180;63012;51.096;-115.366;2022-09-03T06:41:46;87136.80;;;23.60
74533;BMP180;63012;51.096;-115.366;2022-09-03T06:44:38;87136.60;;;23.50
74533;BMP180;63012;51.096;-115.366;2022-09-03T06:47:08;87141.00;;;23.50
74533;BMP180;63012;51.096;-115.366;2022-09-03T06:50:19;87131.00;;;23.50
74533;BMP180;63012;51.096;-115.366;2022-09-03T06:53:12;87128.40;;;23.40
74533;BMP180;63012;51.096;-115.366;2022-09-03T06:56:11;87129.00;;;23.40
74533;BMP180;63012;51.096;-115.366;2022-09-03T06:59:04;87120.60;;;23.40
74533;BMP180;63012;51.096;-115.366;2022-09-03T07:01:48;87122.40;;;23.30
74533;BMP180;63012;51.096;-115.366;2022-09-03T07:04:36;87118.80;;;23.30
74533;BMP180;63012;51.096;-115.366;2022-09-03T07:07:09;87120.20;;;23.30
74533;BMP180;63012;51.096;-115.366;2022-09-03T07:10:08;87113.80;;;23.30
74533;BMP180;63012;51.096;-115.366;2022-09-03T07:13:12;87116.80;;;23.20
74533;BMP180;63012;51.096;-115.366;2022-09-03T07:16:24;87104.00;;;23.10
74533;BMP180;63012;51.096;-115.366;2022-09-03T07:19:04;87101.80;;;23.06
74533;BMP180;63012;51.096;-115.366;2022-09-03T07:31:27;87110.40;;;22.60
74533;BMP180;63012;51.096;-115.366;2022-09-03T07:34:12;87113.00;;;22.50
74533;BMP180;63012;51.096;-115.366;2022-09-03T07:37:36;87115.00;;;22.46
74533;BMP180;63012;51.096;-115.366;2022-09-03T07:46:56;87130.00;;;22.28
74533;BMP180;63012;51.096;-115.366;2022-09-03T07:49:30;87144.40;;;22.30
74533;BMP180;63012;51.096;-115.366;2022-09-03T07:52:29;87134.40;;;22.30
74533;BMP180;63012;51.096;-115.366;2022-09-03T07:55:29;87140.40;;;22.30
74533;BMP180;63012;51.096;-115.366;2022-09-03T07:58:37;87141.20;;;22.30
74533;BMP180;63012;51.096;-115.366;2022-09-03T08:08:04;87142.00;;;22.40
74533;BMP180;63012;51.096;-115.366;2022-09-03T08:11:17;87140.00;;;22.40
74533;BMP180;63012;51.096;-115.366;2022-09-03T08:14:23;87142.80;;;22.40
74533;BMP180;63012;51.096;-115.366;2022-09-03T08:17:08;87152.60;;;22.40
74533;BMP180;63012;51.096;-115.366;2022-09-03T08:20:09;87159.60;;;22.40
74533;BMP180;63012;51.096;-115.366;2022-09-03T08:23:19;87156.60;;;22.30
74533;BMP180;63012;51.096;-115.366;2022-09-03T08:29:10;87161.40;;;22.30
74533;BMP180;63012;51.096;-115.366;2022-09-03T08:35:42;87172.80;;;22.30
74533;BMP180;63012;51.096;-115.366;2022-09-03T08:39:09;87186.40;;;22.30
74533;BMP180;63012;51.096;-115.366;2022-09-03T08:45:38;87180.80;;;22.30
74533;BMP180;63012;51.096;-115.366;2022-09-03T08:52:17;87185.00;;;22.26
74533;BMP180;63012;51.096;-115.366;2022-09-03T08:55:03;87182.00;;;22.20
74533;BMP180;63012;51.096;-115.366;2022-09-03T09:02:25;87189.00;;;22.20
74533;BMP180;63012;51.096;-115.366;2022-09-03T09:13:33;87193.00;;;22.12
74533;BMP180;63012;51.096;-115.366;2022-09-03T09:27:19;87199.60;;;22.06
74533;BMP180;63012;51.096;-115.366;2022-09-03T09:30:11;87201.60;;;22.00
74533;BMP180;63012;51.096;-115.366;2022-09-03T09:33:15;87208.40;;;22.00
74533;BMP180;63012;51.096;-115.366;2022-09-03T09:36:55;87199.80;;;22.00
74533;BMP180;63012;51.096;-115.366;2022-09-03T09:42:32;87205.80;;;21.90
74533;BMP180;63012;51.096;-115.366;2022-09-03T09:48:50;87201.00;;;21.84
74533;BMP180;63012;51.096;-115.366;2022-09-03T09:52:17;87196.40;;;21.80
74533;BMP180;63012;51.096;-115.366;2022-09-03T09:55:19;87196.80;;;21.80
74533;BMP180;63012;51.096;-115.366;2022-09-03T09:59:00;87195.60;;;21.80
74533;BMP180;63012;51.096;-115.366;2022-09-03T10:01:39;87194.00;;;21.78
74533;BMP180;63012;51.096;-115.366;2022-09-03T10:04:50;87194.40;;;21.70
74533;BMP180;63012;51.096;-115.366;2022-09-03T10:10:54;87200.80;;;21.70
74533;BMP180;63012;51.096;-115.366;2022-09-03T10:14:27;87204.20;;;21.70
74533;BMP180;63012;51.096;-115.366;2022-09-03T11:17:40;87206.80;;;21.10
74533;BMP180;63012;51.096;-115.366;2022-09-03T11:33:53;87212.80;;;21.00
74533;BMP180;63012;51.096;-115.366;2022-09-03T11:37:48;87204.20;;;21.00
74533;BMP180;63012;51.096;-115.366;2022-09-03T11:52:44;87198.80;;;20.82
74533;BMP180;63012;51.096;-115.366;2022-09-03T12:05:35;87201.00;;;20.70
74533;BMP180;63012;51.096;-115.366;2022-09-03T12:12:49;87204.80;;;20.60
74533;BMP180;63012;51.096;-115.366;2022-09-03T12:19:49;87198.20;;;20.60
74533;BMP180;63012;51.096;-115.366;2022-09-03T12:27:17;87214.40;;;20.50
74533;BMP180;63012;51.096;-115.366;2022-09-03T12:31:04;87219.60;;;20.50
74533;BMP180;63012;51.096;-115.366;2022-09-03T12:34:40;87220.40;;;20.50
74533;BMP180;63012;51.096;-115.366;2022-09-03T12:37:51;87221.20;;;20.50
74533;BMP180;63012;51.096;-115.366;2022-09-03T12:43:58;87217.60;;;20.40
74533;BMP180;63012;51.096;-115.366;2022-09-03T12:47:29;87220.00;;;20.40
74533;BMP180;63012;51.096;-115.366;2022-09-03T12:51:21;87227.40;;;20.38
74533;BMP180;63012;51.096;-115.366;2022-09-03T12:54:15;87227.40;;;20.30
74533;BMP180;63012;51.096;-115.366;2022-09-03T13:00:28;87235.00;;;20.30
74533;BMP180;63012;51.096;-115.366;2022-09-03T13:28:34;87258.00;;;20.10
74533;BMP180;63012;51.096;-115.366;2022-09-03T13:36:40;87255.40;;;20.00
74533;BMP180;63012;51.096;-115.366;2022-09-03T13:40:03;87261.80;;;19.90
74533;BMP180;63012;51.096;-115.366;2022-09-03T13:54:41;87256.20;;;19.80
74533;BMP180;63012;51.096;-115.366;2022-09-03T15:20:56;87244.80;;;19.50
74533;BMP180;63012;51.096;-115.366;2022-09-03T15:40:46;87233.80;;;19.50
74533;BMP180;63012;51.096;-115.366;2022-09-03T15:47:39;87224.60;;;19.50
74533;BMP180;63012;51.096;-115.366;2022-09-03T16:06:09;87208.00;;;19.50
74533;BMP180;63012;51.096;-115.366;2022-09-03T16:20:06;87209.20;;;19.60
74533;BMP180;63012;51.096;-115.366;2022-09-03T17:51:08;87065.00;;;19.90
74533;BMP180;63012;51.096;-115.366;2022-09-03T17:54:14;87058.80;;;19.92
74533;BMP180;63012;51.096;-115.366;2022-09-03T18:01:47;87050.80;;;20.00
74533;BMP180;63012;51.096;-115.366;2022-09-03T18:21:00;87029.60;;;20.10
74533;BMP180;63012;51.096;-115.366;2022-09-03T18:31:22;87013.20;;;20.10
74533;BMP180;63012;51.096;-115.366;2022-09-03T18:34:29;87007.20;;;20.16
74533;BMP180;63012;51.096;-115.366;2022-09-03T18:38:14;87010.00;;;20.20
74533;BMP180;63012;51.096;-115.366;2022-09-03T18:53:30;86996.80;;;20.30
74533;BMP180;63012;51.096;-115.366;2022-09-03T18:57:07;86984.60;;;20.30
74533;BMP180;63012;51.096;-115.366;2022-09-03T19:08:56;86964.80;;;20.40
74533;BMP180;63012;51.096;-115.366;2022-09-03T19:16:35;86953.60;;;20.50
74533;BMP180;63012;51.096;-115.366;2022-09-03T19:24:13;86947.00;;;20.50
74533;BMP180;63012;51.096;-115.366;2022-09-03T19:31:40;86940.80;;;20.60
74533;BMP180;63012;51.096;-115.366;2022-09-03T19:35:22;86935.00;;;20.60
74533;BMP180;63012;51.096;-115.366;2022-09-03T19:47:19;86908.80;;;20.80
74533;BMP180;63012;51.096;-115.366;2022-09-03T19:54:37;86894.40;;;20.90
74533;BMP180;63012;51.096;-115.366;2022-09-03T20:01:41;86882.20;;;20.98
74533;BMP180;63012;51.096;-115.366;2022-09-03T20:05:44;86875.00;;;21.00
74533;BMP180;63012;51.096;-115.366;2022-09-03T20:13:04;86867.40;;;21.10
74533;BMP180;63012;51.096;-115.366;2022-09-03T20:55:27;86806.00;;;21.70
74533;BMP180;63012;51.096;-115.366;2022-09-03T21:04:58;86784.60;;;21.90
74533;BMP180;63012;51.096;-115.366;2022-09-03T21:19:34;86761.80;;;22.10
74533;BMP180;63012;51.096;-115.366;2022-09-03T21:30:55;86765.00;;;22.20
74533;BMP180;63012;51.096;-115.366;2022-09-03T21:34:07;86763.20;;;22.30
74533;BMP180;63012;51.096;-115.366;2022-09-03T21:41:11;86764.60;;;22.40
74533;BMP180;63012;51.096;-115.366;2022-09-03T21:48:51;86773.00;;;22.50
74533;BMP180;63012;51.096;-115.366;2022-09-03T21:52:05;86770.60;;;22.50
74533;BMP180;63012;51.096;-115.366;2022-09-03T21:54:51;86769.60;;;22.60
74533;BMP180;63012;51.096;-115.366;2022-09-03T22:02:18;86772.40;;;22.62
74533;BMP180;63012;51.096;-115.366;2022-09-03T22:05:12;86764.80;;;22.70
74533;BMP180;63012;51.096;-115.366;2022-09-03T22:15:44;86760.00;;;22.80
74533;BMP180;63012;51.096;-115.366;2022-09-03T22:19:33;86768.80;;;22.84
74533;BMP180;63012;51.096;-115.366;2022-09-03T22:22:51;86742.80;;;22.90
74533;BMP180;63012;51.096;-115.366;2022-09-03T22:30:02;86742.60;;;22.92
74533;BMP180;63012;51.096;-115.366;2022-09-03T22:36:48;86749.00;;;23.00
74533;BMP180;63012;51.096;-115.366;2022-09-03T22:51:05;86741.60;;;23.10
74533;BMP180;63012;51.096;-115.366;2022-09-03T22:54:23;86732.20;;;23.10
74533;BMP180;63012;51.096;-115.366;2022-09-03T22:57:18;86737.80;;;23.14
74533;BMP180;63012;51.096;-115.366;2022-09-03T23:08:21;86728.60;;;23.20
74533;BMP180;63012;51.096;-115.366;2022-09-03T23:18:28;86716.80;;;23.30
74533;BMP180;63012;51.096;-115.366;2022-09-03T23:21:55;86712.80;;;23.30
74533;BMP180;63012;51.096;-115.366;2022-09-03T23:24:37;86710.80;;;23.38
74533;BMP180;63012;51.096;-115.366;2022-09-03T23:27:55;86723.60;;;23.40
74533;BMP180;63012;51.096;-115.366;2022-09-03T23:30:49;86714.80;;;23.40
74533;BMP180;63012;51.096;-115.366;2022-09-03T23:33:40;86718.20;;;23.40
74533;BMP180;63012;51.096;-115.366;2022-09-03T23:51:23;86700.80;;;23.50
74533;BMP180;63012;51.096;-115.366;2022-09-03T23:54:45;86698.20;;;23.60
74533;BMP180;63012;51.096;-115.366;2022-09-03T23:58:19;86698.20;;;23.60
